sensor_id;sensor_type;location;lat;lon;timestamp;P1;durP1;ratioP1;P2;durP2;ratioP2
13404;SDS011;6773;51.192;7.024;2022-12-19T00:01:48;27.20;;;16.00;;
13404;SDS011;6773;51.192;7.024;2022-12-19T00:04:14;28.80;;;15.63;;
13404;SDS011;6773;51.192;7.024;2022-12-19T00:06:43;27.60;;;14.13;;
13404;SDS011;6773;51.192;7.024;2022-12-19T00:09:09;24.03;;;14.93;;
13404;SDS011;6773;51.192;7.024;2022-12-19T00:11:35;27.57;;;15.73;;
13404;SDS011;6773;51.192;7.024;2022-12-19T00:14:02;28.50;;;15.10;;
13404;SDS011;6773;51.192;7.024;2022-12-19T00:16:28;31.33;;;16.60;;
13404;SDS011;6773;51.192;7.024;2022-12-19T00:18:55;32.37;;;17.40;;
13404;SDS011;6773;51.192;7.024;2022-12-19T00:21:23;31.30;;;16.43;;
13404;SDS011;6773;51.192;7.024;2022-12-19T00:23:51;25.20;;;14.07;;
13404;SDS011;6773;51.192;7.024;2022-12-19T00:26:18;33.03;;;18.67;;
13404;SDS011;6773;51.192;7.024;2022-12-19T00:28:49;22.80;;;15.63;;
13404;SDS011;6773;51.192;7.024;2022-12-19T00:31:16;32.30;;;17.20;;
13404;SDS011;6773;51.192;7.024;2022-12-19T00:33:44;36.67;;;18.50;;
13404;SDS011;6773;51.192;7.024;2022-12-19T00:36:11;37.33;;;18.43;;
13404;SDS011;6773;51.192;7.024;2022-12-19T00:38:39;35.47;;;16.03;;
13404;SDS011;6773;51.192;7.024;2022-12-19T00:41:05;34.73;;;17.67;;
13404;SDS011;6773;51.192;7.024;2022-12-19T00:43:35;31.33;;;16.00;;
13404;SDS011;6773;51.192;7.024;2022-12-19T00:46:02;27.07;;;16.00;;
13404;SDS011;6773;51.192;7.024;2022-12-19T00:48:29;33.97;;;17.87;;
13404;SDS011;6773;51.192;7.024;2022-12-19T00:50:59;28.80;;;16.53;;
13404;SDS011;6773;51.192;7.024;2022-12-19T00:53:29;27.37;;;14.30;;
13404;SDS011;6773;51.192;7.024;2022-12-19T00:55:55;21.67;;;12.33;;
13404;SDS011;6773;51.192;7.024;2022-12-19T00:58:21;32.33;;;17.13;;
13404;SDS011;6773;51.192;7.024;2022-12-19T01:00:47;25.47;;;14.33;;
13404;SDS011;6773;51.192;7.024;2022-12-19T01:03:13;26.10;;;15.30;;
13404;SDS011;6773;51.192;7.024;2022-12-19T01:05:38;33.43;;;17.63;;
13404;SDS011;6773;51.192;7.024;2022-12-19T01:08:04;28.20;;;15.23;;
13404;SDS011;6773;51.192;7.024;2022-12-19T01:10:30;28.57;;;15.67;;
13404;SDS011;6773;51.192;7.024;2022-12-19T01:12:56;30.60;;;17.40;;
13404;SDS011;6773;51.192;7.024;2022-12-19T01:15:21;33.40;;;17.53;;
13404;SDS011;6773;51.192;7.024;2022-12-19T01:17:47;29.60;;;16.13;;
13404;SDS011;6773;51.192;7.024;2022-12-19T01:20:14;28.00;;;14.77;;
13404;SDS011;6773;51.192;7.024;2022-12-19T01:22:41;23.63;;;13.87;;
13404;SDS011;6773;51.192;7.024;2022-12-19T01:25:08;34.77;;;18.13;;
13404;SDS011;6773;51.192;7.024;2022-12-19T01:27:34;29.60;;;18.80;;
13404;SDS011;6773;51.192;7.024;2022-12-19T01:29:59;28.97;;;16.57;;
13404;SDS011;6773;51.192;7.024;2022-12-19T01:32:25;28.23;;;16.63;;
13404;SDS011;6773;51.192;7.024;2022-12-19T01:34:50;30.03;;;16.33;;
13404;SDS011;6773;51.192;7.024;2022-12-19T01:37:16;29.27;;;14.70;;
13404;SDS011;6773;51.192;7.024;2022-12-19T01:39:43;29.03;;;15.70;;
13404;SDS011;6773;51.192;7.024;2022-12-19T01:42:19;28.47;;;16.17;;
13404;SDS011;6773;51.192;7.024;2022-12-19T01:44:57;39.70;;;19.03;;
13404;SDS011;6773;51.192;7.024;2022-12-19T01:47:39;28.63;;;17.63;;
13404;SDS011;6773;51.192;7.024;2022-12-19T01:50:38;34.97;;;18.67;;
13404;SDS011;6773;51.192;7.024;2022-12-19T01:53:05;39.83;;;19.27;;
13404;SDS011;6773;51.192;7.024;2022-12-19T01:55:33;41.03;;;19.30;;
13404;SDS011;6773;51.192;7.024;2022-12-19T01:58:02;33.27;;;18.77;;
13404;SDS011;6773;51.192;7.024;2022-12-19T02:00:28;37.10;;;19.77;;
13404;SDS011;6773;51.192;7.024;2022-12-19T02:03:01;38.07;;;20.17;;
13404;SDS011;6773;51.192;7.024;2022-12-19T02:05:32;36.40;;;19.73;;
13404;SDS011;6773;51.192;7.024;2022-12-19T02:07:59;28.93;;;16.13;;
13404;SDS011;6773;51.192;7.024;2022-12-19T02:10:25;32.10;;;15.50;;
13404;SDS011;6773;51.192;7.024;2022-12-19T02:12:50;33.60;;;19.10;;
13404;SDS011;6773;51.192;7.024;2022-12-19T02:15:16;36.20;;;17.43;;
13404;SDS011;6773;51.192;7.024;2022-12-19T02:17:52;37.90;;;20.50;;
13404;SDS011;6773;51.192;7.024;2022-12-19T02:20:31;32.77;;;18.37;;
13404;SDS011;6773;51.192;7.024;2022-12-19T02:31:56;32.53;;;17.70;;
13404;SDS011;6773;51.192;7.024;2022-12-19T02:37:07;38.37;;;20.70;;
13404;SDS011;6773;51.192;7.024;2022-12-19T02:40:00;35.43;;;19.23;;
13404;SDS011;6773;51.192;7.024;2022-12-19T02:42:29;35.00;;;17.93;;
13404;SDS011;6773;51.192;7.024;2022-12-19T02:44:58;29.77;;;17.17;;
13404;SDS011;6773;51.192;7.024;2022-12-19T02:47:26;29.20;;;17.50;;
13404;SDS011;6773;51.192;7.024;2022-12-19T02:49:55;32.57;;;18.93;;
13404;SDS011;6773;51.192;7.024;2022-12-19T02:54:47;32.90;;;19.40;;
13404;SDS011;6773;51.192;7.024;2022-12-19T03:10:44;29.70;;;16.50;;
13404;SDS011;6773;51.192;7.024;2022-12-19T03:13:25;32.10;;;15.80;;
13404;SDS011;6773;51.192;7.024;2022-12-19T03:16:00;29.43;;;16.80;;
13404;SDS011;6773;51.192;7.024;2022-12-19T03:18:27;32.87;;;17.60;;
13404;SDS011;6773;51.192;7.024;2022-12-19T03:21:03;28.17;;;16.37;;
13404;SDS011;6773;51.192;7.024;2022-12-19T03:23:35;26.20;;;15.30;;
13404;SDS011;6773;51.192;7.024;2022-12-19T03:26:06;29.73;;;15.57;;
13404;SDS011;6773;51.192;7.024;2022-12-19T03:28:46;23.90;;;13.07;;
13404;SDS011;6773;51.192;7.024;2022-12-19T03:31:24;30.33;;;15.27;;
13404;SDS011;6773;51.192;7.024;2022-12-19T03:33:54;32.27;;;18.80;;
13404;SDS011;6773;51.192;7.024;2022-12-19T03:36:28;32.27;;;15.87;;
13404;SDS011;6773;51.192;7.024;2022-12-19T03:38:57;21.97;;;13.67;;
13404;SDS011;6773;51.192;7.024;2022-12-19T03:41:25;28.60;;;14.70;;
13404;SDS011;6773;51.192;7.024;2022-12-19T03:44:10;27.33;;;13.60;;
13404;SDS011;6773;51.192;7.024;2022-12-19T03:46:40;32.40;;;18.17;;
13404;SDS011;6773;51.192;7.024;2022-12-19T03:49:09;27.73;;;15.80;;
13404;SDS011;6773;51.192;7.024;2022-12-19T03:51:40;28.23;;;15.50;;
13404;SDS011;6773;51.192;7.024;2022-12-19T03:54:36;30.03;;;16.33;;
13404;SDS011;6773;51.192;7.024;2022-12-19T03:57:15;26.13;;;15.00;;
13404;SDS011;6773;51.192;7.024;2022-12-19T04:02:14;34.53;;;17.30;;
13404;SDS011;6773;51.192;7.024;2022-12-19T04:04:42;29.03;;;16.10;;
13404;SDS011;6773;51.192;7.024;2022-12-19T04:07:11;27.57;;;16.20;;
13404;SDS011;6773;51.192;7.024;2022-12-19T04:09:38;23.47;;;15.20;;
13404;SDS011;6773;51.192;7.024;2022-12-19T04:12:13;31.60;;;17.90;;
13404;SDS011;6773;51.192;7.024;2022-12-19T04:14:42;29.53;;;18.03;;
13404;SDS011;6773;51.192;7.024;2022-12-19T04:20:20;28.27;;;15.67;;
13404;SDS011;6773;51.192;7.024;2022-12-19T04:22:51;28.67;;;17.90;;
13404;SDS011;6773;51.192;7.024;2022-12-19T04:25:18;34.00;;;18.67;;
13404;SDS011;6773;51.192;7.024;2022-12-19T04:27:52;35.83;;;19.57;;
13404;SDS011;6773;51.192;7.024;2022-12-19T04:30:41;35.70;;;20.60;;
13404;SDS011;6773;51.192;7.024;2022-12-19T04:33:09;37.70;;;21.07;;
13404;SDS011;6773;51.192;7.024;2022-12-19T04:35:35;40.33;;;20.10;;
13404;SDS011;6773;51.192;7.024;2022-12-19T04:38:01;38.10;;;19.37;;
13404;SDS011;6773;51.192;7.024;2022-12-19T04:40:26;27.17;;;16.73;;
13404;SDS011;6773;51.192;7.024;2022-12-19T04:42:52;32.10;;;19.47;;
13404;SDS011;6773;51.192;7.024;2022-12-19T04:45:18;38.93;;;20.47;;
13404;SDS011;6773;51.192;7.024;2022-12-19T04:47:43;27.73;;;16.27;;
13404;SDS011;6773;51.192;7.024;2022-12-19T04:50:09;43.30;;;22.53;;
13404;SDS011;6773;51.192;7.024;2022-12-19T04:52:35;40.60;;;20.73;;
13404;SDS011;6773;51.192;7.024;2022-12-19T04:55:00;38.67;;;19.23;;
13404;SDS011;6773;51.192;7.024;2022-12-19T04:57:29;37.43;;;20.00;;
13404;SDS011;6773;51.192;7.024;2022-12-19T04:59:55;37.90;;;20.73;;
13404;SDS011;6773;51.192;7.024;2022-12-19T05:02:21;37.53;;;19.17;;
13404;SDS011;6773;51.192;7.024;2022-12-19T05:04:46;39.57;;;20.93;;
13404;SDS011;6773;51.192;7.024;2022-12-19T05:07:13;35.37;;;19.60;;
13404;SDS011;6773;51.192;7.024;2022-12-19T05:09:38;41.43;;;21.50;;
13404;SDS011;6773;51.192;7.024;2022-12-19T05:12:04;40.47;;;20.53;;
13404;SDS011;6773;51.192;7.024;2022-12-19T05:14:30;37.70;;;20.30;;
13404;SDS011;6773;51.192;7.024;2022-12-19T05:16:56;35.00;;;20.57;;
13404;SDS011;6773;51.192;7.024;2022-12-19T05:19:22;34.83;;;20.57;;
13404;SDS011;6773;51.192;7.024;2022-12-19T05:21:48;34.37;;;17.97;;
13404;SDS011;6773;51.192;7.024;2022-12-19T05:24:14;40.97;;;21.23;;
13404;SDS011;6773;51.192;7.024;2022-12-19T05:26:39;42.30;;;20.10;;
13404;SDS011;6773;51.192;7.024;2022-12-19T05:29:06;44.63;;;23.63;;
13404;SDS011;6773;51.192;7.024;2022-12-19T05:31:32;35.27;;;18.47;;
13404;SDS011;6773;51.192;7.024;2022-12-19T05:33:58;38.37;;;20.03;;
13404;SDS011;6773;51.192;7.024;2022-12-19T05:36:24;29.03;;;14.77;;
13404;SDS011;6773;51.192;7.024;2022-12-19T05:38:57;39.37;;;21.27;;
13404;SDS011;6773;51.192;7.024;2022-12-19T05:41:23;35.10;;;18.60;;
13404;SDS011;6773;51.192;7.024;2022-12-19T05:43:50;45.87;;;23.13;;
13404;SDS011;6773;51.192;7.024;2022-12-19T05:46:17;49.33;;;24.73;;
13404;SDS011;6773;51.192;7.024;2022-12-19T05:48:43;46.63;;;24.10;;
13404;SDS011;6773;51.192;7.024;2022-12-19T05:51:09;42.57;;;21.10;;
13404;SDS011;6773;51.192;7.024;2022-12-19T05:53:35;43.27;;;21.63;;
13404;SDS011;6773;51.192;7.024;2022-12-19T05:56:05;48.00;;;22.90;;
13404;SDS011;6773;51.192;7.024;2022-12-19T05:58:32;42.97;;;22.07;;
13404;SDS011;6773;51.192;7.024;2022-12-19T06:01:02;35.77;;;20.33;;
13404;SDS011;6773;51.192;7.024;2022-12-19T06:03:29;40.43;;;20.50;;
13404;SDS011;6773;51.192;7.024;2022-12-19T06:05:55;48.17;;;23.63;;
13404;SDS011;6773;51.192;7.024;2022-12-19T06:08:21;45.77;;;23.80;;
13404;SDS011;6773;51.192;7.024;2022-12-19T06:10:47;47.50;;;24.67;;
13404;SDS011;6773;51.192;7.024;2022-12-19T06:13:12;48.23;;;23.87;;
13404;SDS011;6773;51.192;7.024;2022-12-19T06:15:38;46.43;;;23.73;;
13404;SDS011;6773;51.192;7.024;2022-12-19T06:18:04;48.30;;;24.20;;
13404;SDS011;6773;51.192;7.024;2022-12-19T06:20:29;48.60;;;22.90;;
13404;SDS011;6773;51.192;7.024;2022-12-19T06:22:55;48.70;;;22.97;;
13404;SDS011;6773;51.192;7.024;2022-12-19T06:25:21;36.80;;;19.10;;
13404;SDS011;6773;51.192;7.024;2022-12-19T06:27:46;47.60;;;22.40;;
13404;SDS011;6773;51.192;7.024;2022-12-19T06:30:12;42.67;;;23.63;;
13404;SDS011;6773;51.192;7.024;2022-12-19T06:32:39;45.40;;;23.73;;
13404;SDS011;6773;51.192;7.024;2022-12-19T06:35:05;44.53;;;21.97;;
13404;SDS011;6773;51.192;7.024;2022-12-19T06:37:31;44.83;;;22.67;;
13404;SDS011;6773;51.192;7.024;2022-12-19T06:39:57;48.93;;;24.70;;
13404;SDS011;6773;51.192;7.024;2022-12-19T06:42:23;47.77;;;23.30;;
13404;SDS011;6773;51.192;7.024;2022-12-19T06:44:49;47.83;;;22.73;;
13404;SDS011;6773;51.192;7.024;2022-12-19T06:47:16;38.40;;;21.97;;
13404;SDS011;6773;51.192;7.024;2022-12-19T06:49:42;40.53;;;21.37;;
13404;SDS011;6773;51.192;7.024;2022-12-19T06:52:08;40.73;;;21.70;;
13404;SDS011;6773;51.192;7.024;2022-12-19T06:54:33;41.77;;;21.67;;
13404;SDS011;6773;51.192;7.024;2022-12-19T06:56:59;41.90;;;23.70;;
13404;SDS011;6773;51.192;7.024;2022-12-19T06:59:25;42.20;;;21.10;;
13404;SDS011;6773;51.192;7.024;2022-12-19T07:04:35;36.33;;;19.60;;
13404;SDS011;6773;51.192;7.024;2022-12-19T07:07:05;33.00;;;18.47;;
13404;SDS011;6773;51.192;7.024;2022-12-19T07:09:31;35.87;;;20.13;;
13404;SDS011;6773;51.192;7.024;2022-12-19T07:11:59;35.20;;;20.07;;
13404;SDS011;6773;51.192;7.024;2022-12-19T07:14:25;31.17;;;16.90;;
13404;SDS011;6773;51.192;7.024;2022-12-19T07:16:50;33.17;;;16.53;;
13404;SDS011;6773;51.192;7.024;2022-12-19T07:19:18;25.63;;;15.33;;
13404;SDS011;6773;51.192;7.024;2022-12-19T07:21:45;29.67;;;16.13;;
13404;SDS011;6773;51.192;7.024;2022-12-19T07:24:11;34.23;;;18.33;;
13404;SDS011;6773;51.192;7.024;2022-12-19T07:26:38;30.97;;;17.33;;
13404;SDS011;6773;51.192;7.024;2022-12-19T07:29:05;34.03;;;18.33;;
13404;SDS011;6773;51.192;7.024;2022-12-19T07:31:32;40.83;;;19.87;;
13404;SDS011;6773;51.192;7.024;2022-12-19T07:33:57;31.87;;;17.93;;
13404;SDS011;6773;51.192;7.024;2022-12-19T07:36:23;29.67;;;17.73;;
13404;SDS011;6773;51.192;7.024;2022-12-19T07:38:49;26.50;;;13.90;;
13404;SDS011;6773;51.192;7.024;2022-12-19T07:41:14;29.13;;;15.40;;
13404;SDS011;6773;51.192;7.024;2022-12-19T07:43:40;28.30;;;17.77;;
13404;SDS011;6773;51.192;7.024;2022-12-19T07:46:06;30.40;;;17.27;;
13404;SDS011;6773;51.192;7.024;2022-12-19T07:48:31;32.40;;;17.43;;
13404;SDS011;6773;51.192;7.024;2022-12-19T07:50:57;30.63;;;18.03;;
13404;SDS011;6773;51.192;7.024;2022-12-19T07:53:23;25.23;;;15.70;;
13404;SDS011;6773;51.192;7.024;2022-12-19T07:55:49;32.00;;;18.10;;
13404;SDS011;6773;51.192;7.024;2022-12-19T07:58:15;26.10;;;16.17;;
13404;SDS011;6773;51.192;7.024;2022-12-19T08:00:41;35.63;;;19.23;;
13404;SDS011;6773;51.192;7.024;2022-12-19T08:03:07;35.20;;;18.87;;
13404;SDS011;6773;51.192;7.024;2022-12-19T08:05:32;32.80;;;18.73;;
13404;SDS011;6773;51.192;7.024;2022-12-19T08:07:58;32.27;;;18.93;;
13404;SDS011;6773;51.192;7.024;2022-12-19T08:10:24;36.30;;;18.70;;
13404;SDS011;6773;51.192;7.024;2022-12-19T08:12:50;26.67;;;16.57;;
13404;SDS011;6773;51.192;7.024;2022-12-19T08:15:16;32.80;;;18.63;;
13404;SDS011;6773;51.192;7.024;2022-12-19T08:17:42;32.30;;;18.40;;
13404;SDS011;6773;51.192;7.024;2022-12-19T08:20:08;34.43;;;18.60;;
13404;SDS011;6773;51.192;7.024;2022-12-19T08:22:37;34.17;;;17.10;;
13404;SDS011;6773;51.192;7.024;2022-12-19T08:25:03;31.23;;;17.87;;
13404;SDS011;6773;51.192;7.024;2022-12-19T08:27:31;27.00;;;16.87;;
13404;SDS011;6773;51.192;7.024;2022-12-19T08:29:58;29.90;;;17.33;;
13404;SDS011;6773;51.192;7.024;2022-12-19T08:32:24;28.63;;;16.57;;
13404;SDS011;6773;51.192;7.024;2022-12-19T08:34:49;34.77;;;18.27;;
13404;SDS011;6773;51.192;7.024;2022-12-19T08:37:15;28.90;;;17.83;;
13404;SDS011;6773;51.192;7.024;2022-12-19T08:39:41;33.67;;;18.93;;
13404;SDS011;6773;51.192;7.024;2022-12-19T08:42:07;25.33;;;14.37;;
13404;SDS011;6773;51.192;7.024;2022-12-19T08:44:33;26.37;;;16.60;;
13404;SDS011;6773;51.192;7.024;2022-12-19T08:46:58;29.80;;;17.40;;
13404;SDS011;6773;51.192;7.024;2022-12-19T08:49:24;25.67;;;15.87;;
13404;SDS011;6773;51.192;7.024;2022-12-19T08:51:49;32.50;;;17.73;;
13404;SDS011;6773;51.192;7.024;2022-12-19T08:54:15;29.53;;;15.17;;
13404;SDS011;6773;51.192;7.024;2022-12-19T08:56:41;28.63;;;17.10;;
13404;SDS011;6773;51.192;7.024;2022-12-19T08:59:06;28.27;;;18.17;;
13404;SDS011;6773;51.192;7.024;2022-12-19T09:01:32;30.73;;;17.53;;
13404;SDS011;6773;51.192;7.024;2022-12-19T09:03:58;23.30;;;15.13;;
13404;SDS011;6773;51.192;7.024;2022-12-19T09:06:24;24.70;;;14.73;;
13404;SDS011;6773;51.192;7.024;2022-12-19T09:08:50;27.23;;;16.93;;
13404;SDS011;6773;51.192;7.024;2022-12-19T09:11:17;30.10;;;18.00;;
13404;SDS011;6773;51.192;7.024;2022-12-19T09:13:44;26.50;;;16.40;;
13404;SDS011;6773;51.192;7.024;2022-12-19T09:16:14;23.50;;;14.97;;
13404;SDS011;6773;51.192;7.024;2022-12-19T09:18:45;26.83;;;15.73;;
13404;SDS011;6773;51.192;7.024;2022-12-19T09:21:12;26.53;;;14.33;;
13404;SDS011;6773;51.192;7.024;2022-12-19T09:23:38;23.23;;;16.00;;
13404;SDS011;6773;51.192;7.024;2022-12-19T09:26:06;19.17;;;13.53;;
13404;SDS011;6773;51.192;7.024;2022-12-19T09:28:35;22.87;;;13.87;;
13404;SDS011;6773;51.192;7.024;2022-12-19T09:31:06;19.70;;;13.23;;
13404;SDS011;6773;51.192;7.024;2022-12-19T09:33:36;24.67;;;15.00;;
13404;SDS011;6773;51.192;7.024;2022-12-19T09:36:02;21.03;;;12.83;;
13404;SDS011;6773;51.192;7.024;2022-12-19T09:38:29;21.67;;;15.03;;
13404;SDS011;6773;51.192;7.024;2022-12-19T09:49:08;20.17;;;13.10;;
13404;SDS011;6773;51.192;7.024;2022-12-19T09:54:37;17.90;;;12.00;;
13404;SDS011;6773;51.192;7.024;2022-12-19T09:57:12;23.40;;;14.03;;
13404;SDS011;6773;51.192;7.024;2022-12-19T09:59:50;19.87;;;12.37;;
13404;SDS011;6773;51.192;7.024;2022-12-19T10:02:53;22.53;;;15.03;;
13404;SDS011;6773;51.192;7.024;2022-12-19T10:05:33;18.20;;;11.80;;
13404;SDS011;6773;51.192;7.024;2022-12-19T10:08:18;19.50;;;13.63;;
13404;SDS011;6773;51.192;7.024;2022-12-19T10:34:36;21.73;;;14.03;;
13404;SDS011;6773;51.192;7.024;2022-12-19T10:37:21;24.10;;;13.97;;
13404;SDS011;6773;51.192;7.024;2022-12-19T10:40:04;23.03;;;15.07;;
13404;SDS011;6773;51.192;7.024;2022-12-19T10:42:41;22.87;;;13.93;;
13404;SDS011;6773;51.192;7.024;2022-12-19T10:45:17;23.70;;;14.53;;
13404;SDS011;6773;51.192;7.024;2022-12-19T10:47:48;22.17;;;12.93;;
13404;SDS011;6773;51.192;7.024;2022-12-19T10:50:20;24.33;;;15.00;;
13404;SDS011;6773;51.192;7.024;2022-12-19T10:52:52;25.23;;;15.00;;
13404;SDS011;6773;51.192;7.024;2022-12-19T10:55:48;23.90;;;14.93;;
13404;SDS011;6773;51.192;7.024;2022-12-19T10:58:20;27.83;;;15.97;;
13404;SDS011;6773;51.192;7.024;2022-12-19T11:03:18;25.53;;;15.33;;
13404;SDS011;6773;51.192;7.024;2022-12-19T11:05:51;25.17;;;14.87;;
13404;SDS011;6773;51.192;7.024;2022-12-19T11:08:24;23.87;;;13.70;;
13404;SDS011;6773;51.192;7.024;2022-12-19T11:10:55;23.10;;;14.20;;
13404;SDS011;6773;51.192;7.024;2022-12-19T11:15:59;21.40;;;13.53;;
13404;SDS011;6773;51.192;7.024;2022-12-19T11:18:32;18.83;;;12.80;;
13404;SDS011;6773;51.192;7.024;2022-12-19T11:23:42;21.10;;;14.43;;
13404;SDS011;6773;51.192;7.024;2022-12-19T11:26:23;26.80;;;14.13;;
13404;SDS011;6773;51.192;7.024;2022-12-19T11:29:01;21.30;;;12.90;;
13404;SDS011;6773;51.192;7.024;2022-12-19T11:31:40;22.27;;;13.10;;
13404;SDS011;6773;51.192;7.024;2022-12-19T11:34:11;17.37;;;12.77;;
13404;SDS011;6773;51.192;7.024;2022-12-19T11:36:47;19.73;;;13.30;;
13404;SDS011;6773;51.192;7.024;2022-12-19T11:39:25;21.13;;;13.30;;
13404;SDS011;6773;51.192;7.024;2022-12-19T11:41:59;20.97;;;13.70;;
13404;SDS011;6773;51.192;7.024;2022-12-19T11:44:43;20.07;;;12.57;;
13404;SDS011;6773;51.192;7.024;2022-12-19T11:49:54;22.43;;;13.43;;
13404;SDS011;6773;51.192;7.024;2022-12-19T11:52:42;19.77;;;12.40;;
13404;SDS011;6773;51.192;7.024;2022-12-19T11:55:22;20.63;;;12.97;;
13404;SDS011;6773;51.192;7.024;2022-12-19T11:57:56;19.03;;;12.80;;
13404;SDS011;6773;51.192;7.024;2022-12-19T12:00:23;25.07;;;13.43;;
13404;SDS011;6773;51.192;7.024;2022-12-19T12:05:54;18.97;;;12.87;;
13404;SDS011;6773;51.192;7.024;2022-12-19T12:16:59;21.60;;;13.30;;
13404;SDS011;6773;51.192;7.024;2022-12-19T12:25:17;20.73;;;11.90;;
13404;SDS011;6773;51.192;7.024;2022-12-19T12:30:54;14.93;;;10.13;;
13404;SDS011;6773;51.192;7.024;2022-12-19T12:33:41;16.67;;;10.17;;
13404;SDS011;6773;51.192;7.024;2022-12-19T12:36:48;18.27;;;12.73;;
13404;SDS011;6773;51.192;7.024;2022-12-19T12:39:43;15.23;;;11.37;;
13404;SDS011;6773;51.192;7.024;2022-12-19T12:45:00;19.57;;;12.27;;
13404;SDS011;6773;51.192;7.024;2022-12-19T12:47:33;19.17;;;11.53;;
13404;SDS011;6773;51.192;7.024;2022-12-19T12:50:01;17.90;;;11.43;;
13404;SDS011;6773;51.192;7.024;2022-12-19T12:52:33;16.30;;;10.27;;
13404;SDS011;6773;51.192;7.024;2022-12-19T12:55:04;17.33;;;10.60;;
13404;SDS011;6773;51.192;7.024;2022-12-19T12:57:38;21.10;;;10.13;;
13404;SDS011;6773;51.192;7.024;2022-12-19T13:02:54;18.00;;;10.63;;
13404;SDS011;6773;51.192;7.024;2022-12-19T13:10:53;15.63;;;10.03;;
13404;SDS011;6773;51.192;7.024;2022-12-19T13:13:21;12.57;;;9.70;;
13404;SDS011;6773;51.192;7.024;2022-12-19T13:19:15;14.00;;;9.47;;
13404;SDS011;6773;51.192;7.024;2022-12-19T13:24:37;12.63;;;9.13;;
13404;SDS011;6773;51.192;7.024;2022-12-19T13:35:05;15.00;;;9.33;;
13404;SDS011;6773;51.192;7.024;2022-12-19T13:45:50;12.40;;;8.73;;
13404;SDS011;6773;51.192;7.024;2022-12-19T13:48:21;13.37;;;8.47;;
13404;SDS011;6773;51.192;7.024;2022-12-19T13:50:48;12.90;;;9.63;;
13404;SDS011;6773;51.192;7.024;2022-12-19T13:53:21;13.50;;;8.53;;
13404;SDS011;6773;51.192;7.024;2022-12-19T13:56:02;13.73;;;9.57;;
13404;SDS011;6773;51.192;7.024;2022-12-19T13:58:52;14.77;;;9.83;;
13404;SDS011;6773;51.192;7.024;2022-12-19T14:01:22;17.27;;;10.27;;
13404;SDS011;6773;51.192;7.024;2022-12-19T14:03:50;16.93;;;10.60;;
13404;SDS011;6773;51.192;7.024;2022-12-19T14:06:20;16.00;;;9.33;;
13404;SDS011;6773;51.192;7.024;2022-12-19T14:08:48;13.13;;;9.20;;
13404;SDS011;6773;51.192;7.024;2022-12-19T14:11:16;16.37;;;10.27;;
13404;SDS011;6773;51.192;7.024;2022-12-19T14:13:46;17.70;;;10.27;;
13404;SDS011;6773;51.192;7.024;2022-12-19T14:16:39;13.83;;;9.10;;
13404;SDS011;6773;51.192;7.024;2022-12-19T14:19:15;15.13;;;9.27;;
13404;SDS011;6773;51.192;7.024;2022-12-19T14:21:49;10.77;;;7.87;;
13404;SDS011;6773;51.192;7.024;2022-12-19T14:24:17;13.57;;;8.97;;
13404;SDS011;6773;51.192;7.024;2022-12-19T14:26:49;12.37;;;8.13;;
13404;SDS011;6773;51.192;7.024;2022-12-19T14:29:22;12.37;;;8.23;;
13404;SDS011;6773;51.192;7.024;2022-12-19T14:31:55;12.33;;;7.60;;
13404;SDS011;6773;51.192;7.024;2022-12-19T14:34:22;10.67;;;7.40;;
13404;SDS011;6773;51.192;7.024;2022-12-19T14:36:54;12.73;;;7.17;;
13404;SDS011;6773;51.192;7.024;2022-12-19T14:39:22;11.37;;;6.87;;
13404;SDS011;6773;51.192;7.024;2022-12-19T14:41:59;11.67;;;7.60;;
13404;SDS011;6773;51.192;7.024;2022-12-19T14:47:19;11.37;;;7.20;;
13404;SDS011;6773;51.192;7.024;2022-12-19T14:49:50;11.30;;;7.43;;
13404;SDS011;6773;51.192;7.024;2022-12-19T14:57:45;9.27;;;6.67;;
13404;SDS011;6773;51.192;7.024;2022-12-19T15:00:23;10.70;;;7.53;;
13404;SDS011;6773;51.192;7.024;2022-12-19T15:02:53;9.47;;;6.20;;
13404;SDS011;6773;51.192;7.024;2022-12-19T15:05:21;10.20;;;6.80;;
13404;SDS011;6773;51.192;7.024;2022-12-19T15:07:51;9.60;;;7.23;;
13404;SDS011;6773;51.192;7.024;2022-12-19T15:10:21;9.73;;;6.50;;
13404;SDS011;6773;51.192;7.024;2022-12-19T15:18:57;10.93;;;7.30;;
13404;SDS011;6773;51.192;7.024;2022-12-19T15:21:05;10.43;;;7.27;;
13404;SDS011;6773;51.192;7.024;2022-12-19T15:23:36;11.73;;;7.00;;
13404;SDS011;6773;51.192;7.024;2022-12-19T15:26:03;10.10;;;7.60;;
13404;SDS011;6773;51.192;7.024;2022-12-19T15:28:39;10.63;;;7.80;;
13404;SDS011;6773;51.192;7.024;2022-12-19T15:33:48;10.23;;;7.50;;
13404;SDS011;6773;51.192;7.024;2022-12-19T15:36:14;11.47;;;7.83;;
13404;SDS011;6773;51.192;7.024;2022-12-19T15:38:40;10.77;;;7.23;;
13404;SDS011;6773;51.192;7.024;2022-12-19T15:41:08;9.83;;;7.50;;
13404;SDS011;6773;51.192;7.024;2022-12-19T15:43:40;10.57;;;7.67;;
13404;SDS011;6773;51.192;7.024;2022-12-19T15:46:06;8.70;;;6.37;;
13404;SDS011;6773;51.192;7.024;2022-12-19T15:48:34;10.03;;;7.00;;
13404;SDS011;6773;51.192;7.024;2022-12-19T15:51:03;10.40;;;6.77;;
13404;SDS011;6773;51.192;7.024;2022-12-19T15:53:28;9.07;;;6.63;;
13404;SDS011;6773;51.192;7.024;2022-12-19T15:55:56;9.60;;;6.90;;
13404;SDS011;6773;51.192;7.024;2022-12-19T15:58:24;10.23;;;7.20;;
13404;SDS011;6773;51.192;7.024;2022-12-19T16:01:09;10.07;;;7.37;;
13404;SDS011;6773;51.192;7.024;2022-12-19T16:03:36;10.50;;;6.87;;
13404;SDS011;6773;51.192;7.024;2022-12-19T16:06:02;9.90;;;6.10;;
13404;SDS011;6773;51.192;7.024;2022-12-19T16:08:29;8.57;;;6.67;;
13404;SDS011;6773;51.192;7.024;2022-12-19T16:10:55;9.63;;;6.30;;
13404;SDS011;6773;51.192;7.024;2022-12-19T16:13:25;13.03;;;7.20;;
13404;SDS011;6773;51.192;7.024;2022-12-19T16:15:54;9.50;;;7.00;;
13404;SDS011;6773;51.192;7.024;2022-12-19T16:18:22;6.70;;;5.53;;
13404;SDS011;6773;51.192;7.024;2022-12-19T16:20:48;7.90;;;5.63;;
13404;SDS011;6773;51.192;7.024;2022-12-19T16:23:14;7.07;;;6.23;;
13404;SDS011;6773;51.192;7.024;2022-12-19T16:28:06;8.77;;;6.27;;
13404;SDS011;6773;51.192;7.024;2022-12-19T16:30:38;8.40;;;6.27;;
13404;SDS011;6773;51.192;7.024;2022-12-19T16:33:11;7.83;;;6.17;;
13404;SDS011;6773;51.192;7.024;2022-12-19T16:35:51;9.27;;;6.43;;
13404;SDS011;6773;51.192;7.024;2022-12-19T16:38:17;7.73;;;5.87;;
13404;SDS011;6773;51.192;7.024;2022-12-19T16:40:44;9.63;;;6.50;;
13404;SDS011;6773;51.192;7.024;2022-12-19T16:43:18;9.17;;;6.80;;
13404;SDS011;6773;51.192;7.024;2022-12-19T16:45:59;8.63;;;6.17;;
13404;SDS011;6773;51.192;7.024;2022-12-19T16:48:25;8.03;;;5.60;;
13404;SDS011;6773;51.192;7.024;2022-12-19T16:50:54;7.30;;;6.37;;
13404;SDS011;6773;51.192;7.024;2022-12-19T16:53:23;9.87;;;5.90;;
13404;SDS011;6773;51.192;7.024;2022-12-19T16:55:49;8.87;;;6.43;;
13404;SDS011;6773;51.192;7.024;2022-12-19T16:58:19;10.57;;;5.97;;
13404;SDS011;6773;51.192;7.024;2022-12-19T17:00:46;9.17;;;6.67;;
13404;SDS011;6773;51.192;7.024;2022-12-19T17:03:21;9.23;;;6.40;;
13404;SDS011;6773;51.192;7.024;2022-12-19T17:06:04;7.73;;;5.70;;
13404;SDS011;6773;51.192;7.024;2022-12-19T17:08:30;8.70;;;6.23;;
13404;SDS011;6773;51.192;7.024;2022-12-19T17:10:56;9.27;;;6.07;;
13404;SDS011;6773;51.192;7.024;2022-12-19T17:13:22;7.37;;;5.07;;
13404;SDS011;6773;51.192;7.024;2022-12-19T17:15:48;8.97;;;6.27;;
13404;SDS011;6773;51.192;7.024;2022-12-19T17:18:21;10.97;;;6.40;;
13404;SDS011;6773;51.192;7.024;2022-12-19T17:20:52;8.63;;;6.13;;
13404;SDS011;6773;51.192;7.024;2022-12-19T17:23:21;8.67;;;5.87;;
13404;SDS011;6773;51.192;7.024;2022-12-19T17:25:48;6.73;;;5.23;;
13404;SDS011;6773;51.192;7.024;2022-12-19T17:28:15;6.57;;;5.30;;